Time;durP1;ratioP1;P1;durP2;ratioP2;P2;SDS_P1;SDS_P2;PMS_P1;PMS_P2;Temp;Humidity;BMP_temperature;BMP_pressure;BME280_temperature;BME280_humidity;BME280_pressure;Samples;Min_cycle;Max_cycle;Signal;HPM_P1;HPM_P2
2020/12/21 00:03:10;;;;;;;6.93;5.40;;;20.80;32.10;;;;;;8277144;28;20046;-49
2020/12/21 00:07:10;;;;;;;8.50;6.30;;;20.80;32.20;;;;;;8287893;28;20265;-48
2020/12/21 00:11:11;;;;;;;6.20;5.43;;;20.70;32.10;;;;;;8293211;28;20045;-49
2020/12/21 00:15:11;;;;;;;7.00;5.63;;;20.70;32.10;;;;;;8293178;28;20034;-47
2020/12/21 00:19:13;;;;;;;7.53;5.30;;;20.70;32.20;;;;;;8291351;28;20514;-50
2020/12/21 00:23:15;;;;;;;6.35;5.25;;;20.70;32.20;;;;;;8297101;28;20124;-48
2020/12/21 00:27:15;;;;;;;7.18;5.25;;;20.70;32.20;;;;;;8271302;28;20038;-53
2020/12/21 00:31:27;;;;;;;8.37;5.70;;;20.70;32.20;;;;;;8288086;28;20044;-49
2020/12/21 00:35:27;;;;;;;8.07;5.75;;;20.70;32.20;;;;;;8292703;28;20034;-48
2020/12/21 00:39:28;;;;;;;7.00;5.30;;;20.70;32.20;;;;;;8296880;28;20041;-49
2020/12/21 00:43:28;;;;;;;8.53;5.83;;;20.70;32.20;;;;;;8259637;28;20380;-48
2020/12/21 00:47:32;;;;;;;6.97;5.60;;;20.60;32.20;;;;;;8279433;28;20072;-49
2020/12/21 00:51:34;;;;;;;5.90;5.30;;;20.60;32.20;;;;;;8280457;28;20551;-49
2020/12/21 00:55:35;;;;;;;6.82;5.95;;;20.60;32.20;;;;;;8285775;28;20511;-53
2020/12/21 00:59:35;;;;;;;8.43;5.67;;;20.60;32.20;;;;;;8286649;28;20083;-50
2020/12/21 01:03:36;;;;;;;9.23;5.90;;;20.60;32.20;;;;;;8298983;28;20053;-49
2020/12/21 01:07:37;;;;;;;6.70;5.07;;;20.60;32.30;;;;;;8265199;28;20030;-49
2020/12/21 01:11:38;;;;;;;7.05;5.40;;;20.60;32.20;;;;;;8270619;28;20443;-49
2020/12/21 01:15:38;;;;;;;7.13;5.47;;;20.50;32.20;;;;;;8327453;28;20124;-48
2020/12/21 01:19:39;;;;;;;6.80;5.77;;;20.50;32.20;;;;;;8293032;28;20587;-53
2020/12/21 01:23:39;;;;;;;7.47;5.40;;;20.50;32.20;;;;;;8266087;28;20069;-48
2020/12/21 01:27:40;;;;;;;6.40;5.27;;;20.50;32.30;;;;;;8288233;28;20030;-48
2020/12/21 01:31:40;;;;;;;7.77;6.17;;;20.50;32.30;;;;;;8278091;28;20165;-49
2020/12/21 01:35:41;;;;;;;7.27;5.77;;;20.50;32.30;;;;;;8297831;28;20053;-48
2020/12/21 01:39:48;;;;;;;7.90;5.73;;;20.40;32.20;;;;;;8271614;28;20047;-49
2020/12/21 01:43:53;;;;;;;6.75;5.50;;;20.40;32.30;;;;;;8275207;28;20044;-49
2020/12/21 01:47:54;;;;;;;6.53;5.30;;;20.40;32.80;;;;;;8297498;28;20100;-48
2020/12/21 01:51:54;;;;;;;8.10;5.50;;;20.40;32.30;;;;;;8276010;28;20038;-48
2020/12/21 01:55:58;;;;;;;8.37;6.50;;;20.40;32.30;;;;;;8287314;28;20603;-48
2020/12/21 02:00:03;;;;;;;7.45;5.85;;;20.40;32.30;;;;;;8264635;28;20128;-48
2020/12/21 02:04:03;;;;;;;6.78;5.63;;;20.40;32.30;;;;;;8266330;28;20553;-48
2020/12/21 02:08:05;;;;;;;6.80;6.10;;;20.40;32.30;;;;;;8301058;28;20080;-48
2020/12/21 02:12:06;;;;;;;7.10;5.55;;;20.40;32.30;;;;;;8276689;28;20062;-49
2020/12/21 02:16:08;;;;;;;7.83;5.00;;;20.40;32.30;;;;;;8290598;28;20391;-48
2020/12/21 02:20:08;;;;;;;6.47;5.28;;;20.40;32.30;;;;;;8296781;28;20046;-49
2020/12/21 02:24:09;;;;;;;6.60;5.43;;;20.40;32.40;;;;;;8276111;28;20120;-49
2020/12/21 02:28:09;;;;;;;7.60;5.53;;;20.30;32.30;;;;;;8270817;28;20499;-48
2020/12/21 02:32:10;;;;;;;5.77;5.13;;;20.40;32.40;;;;;;8296057;28;20038;-48
2020/12/21 02:36:10;;;;;;;6.83;5.43;;;20.30;32.30;;;;;;8296080;28;20038;-48
2020/12/21 02:40:11;;;;;;;6.83;5.63;;;20.30;32.40;;;;;;8294211;28;20563;-49
2020/12/21 02:44:11;;;;;;;8.03;6.13;;;20.30;32.40;;;;;;8300269;28;20030;-48
2020/12/21 02:48:12;;;;;;;5.80;5.20;;;20.30;32.40;;;;;;8275523;28;20046;-48
2020/12/21 02:52:14;;;;;;;7.30;5.35;;;20.30;32.40;;;;;;8266143;28;20578;-48
2020/12/21 02:56:16;;;;;;;6.95;5.43;;;20.30;32.40;;;;;;8282765;28;20092;-48
2020/12/21 03:00:16;;;;;;;6.82;5.70;;;20.30;32.40;;;;;;8285185;28;20041;-48
2020/12/21 03:04:17;;;;;;;6.20;4.97;;;20.30;32.40;;;;;;8296846;28;20513;-54
2020/12/21 03:08:17;;;;;;;6.77;5.50;;;20.30;32.40;;;;;;8295184;28;20073;-53
2020/12/21 03:12:18;;;;;;;6.17;5.57;;;20.20;32.30;;;;;;8273492;28;20030;-50
2020/12/21 03:16:18;;;;;;;6.27;5.03;;;20.20;32.30;;;;;;8265747;28;20117;-49
2020/12/21 03:20:19;;;;;;;8.17;5.47;;;20.20;32.40;;;;;;8298658;28;20391;-49
2020/12/21 03:24:19;;;;;;;6.73;4.90;;;20.20;32.30;;;;;;8294592;28;20088;-48
2020/12/21 03:28:20;;;;;;;8.20;5.70;;;20.20;32.30;;;;;;8268511;28;20030;-48
2020/12/21 03:32:21;;;;;;;9.35;5.15;;;20.20;32.30;;;;;;8280392;28;20518;-48
2020/12/21 03:36:21;;;;;;;9.30;5.73;;;20.20;32.30;;;;;;8287987;28;20076;-48
2020/12/21 03:40:22;;;;;;;9.40;5.40;;;20.10;32.30;;;;;;8292263;28;20384;-48
2020/12/21 03:44:22;;;;;;;8.03;5.70;;;20.10;32.30;;;;;;8294186;28;20034;-49
2020/12/21 03:48:23;;;;;;;7.93;5.20;;;20.10;32.30;;;;;;8293819;28;20038;-49
2020/12/21 03:52:24;;;;;;;9.13;5.67;;;20.10;32.30;;;;;;8292051;28;20762;-47
2020/12/21 03:56:24;;;;;;;9.20;5.67;;;20.10;32.30;;;;;;8283482;28;20096;-48
2020/12/21 04:00:25;;;;;;;8.17;6.00;;;20.10;32.30;;;;;;8261093;28;20077;-48
2020/12/21 04:04:25;;;;;;;9.13;5.77;;;20.10;32.30;;;;;;8265579;28;20034;-49
2020/12/21 04:08:26;;;;;;;7.93;5.40;;;20.10;32.30;;;;;;8278838;28;20042;-49
2020/12/21 04:12:26;;;;;;;8.00;5.87;;;20.10;32.30;;;;;;8287946;28;20033;-47
2020/12/21 04:16:27;;;;;;;8.93;5.53;;;20.10;32.40;;;;;;8267038;28;20038;-48
2020/12/21 04:20:27;;;;;;;9.13;6.00;;;20.10;32.50;;;;;;8292819;28;20526;-48
2020/12/21 04:24:28;;;;;;;12.73;5.83;;;20.10;32.40;;;;;;8293131;28;20038;-49
2020/12/21 04:28:28;;;;;;;11.63;6.50;;;20.10;32.30;;;;;;8288628;28;20022;-49
2020/12/21 04:32:29;;;;;;;10.87;6.07;;;20.20;32.40;;;;;;8260239;28;20042;-49
2020/12/21 04:36:29;;;;;;;11.33;5.77;;;20.20;32.40;;;;;;8283271;28;20442;-50
2020/12/21 04:40:30;;;;;;;11.37;5.90;;;20.30;32.30;;;;;;8259709;28;20125;-48
2020/12/21 04:44:30;;;;;;;8.63;6.17;;;20.40;32.30;;;;;;8275320;28;20058;-48
2020/12/21 04:48:36;;;;;;;10.23;6.00;;;20.40;32.20;;;;;;8273879;28;20034;-47
2020/12/21 04:52:49;;;;;;;9.40;5.47;;;20.40;32.20;;;;;;8315931;28;20036;-49
2020/12/21 04:56:49;;;;;;;8.73;5.30;;;20.50;32.20;;;;;;8289151;28;20038;-49
2020/12/21 05:00:50;;;;;;;9.87;5.57;;;20.50;32.10;;;;;;8258168;28;20097;-48
2020/12/21 05:04:52;;;;;;;9.77;6.20;;;20.60;32.10;;;;;;8264050;28;20035;-47
2020/12/21 05:09:00;;;;;;;9.15;5.57;;;20.60;32.00;;;;;;8260091;28;20042;-47
2020/12/21 05:13:02;;;;;;;8.80;5.97;;;20.60;32.00;;;;;;8258020;28;20488;-48
2020/12/21 05:17:14;;;;;;;10.93;6.68;;;20.70;32.00;;;;;;8270968;28;20038;-49
2020/12/21 05:21:14;;;;;;;11.13;6.03;;;20.60;32.00;;;;;;8291710;28;20453;-49
2020/12/21 05:25:20;;;;;;;11.73;6.10;;;20.70;32.00;;;;;;8265411;28;20220;-48
2020/12/21 05:29:27;;;;;;;8.13;5.63;;;20.70;32.00;;;;;;8259315;28;20038;-48
2020/12/21 05:33:28;;;;;;;8.50;5.68;;;20.80;32.00;;;;;;8259277;28;20034;-48
2020/12/21 05:37:29;;;;;;;11.17;6.17;;;20.80;32.00;;;;;;8282220;28;20046;-48
2020/12/21 05:41:30;;;;;;;8.23;5.07;;;20.80;32.00;;;;;;8262728;28;20050;-48
2020/12/21 05:45:31;;;;;;;8.70;5.47;;;20.80;31.90;;;;;;8268364;28;20031;-48
2020/12/21 05:49:35;;;;;;;8.37;5.43;;;20.80;31.90;;;;;;8264136;28;20518;-49
2020/12/21 05:53:43;;;;;;;8.88;5.78;;;20.90;31.90;;;;;;8280944;28;20172;-48
2020/12/21 05:57:47;;;;;;;8.88;6.13;;;20.90;31.90;;;;;;8271265;28;20367;-50
2020/12/21 06:01:58;;;;;;;10.98;5.78;;;20.90;31.90;;;;;;8291951;28;20046;-49
2020/12/21 06:06:06;;;;;;;8.88;5.75;;;20.90;31.90;;;;;;8264898;28;20042;-48
2020/12/21 06:10:09;;;;;;;11.25;5.78;;;20.90;31.80;;;;;;8266746;28;20041;-48
2020/12/21 06:14:13;;;;;;;8.48;5.57;;;21.00;31.90;;;;;;8284634;28;20030;-49
2020/12/21 06:18:13;;;;;;;9.32;6.10;;;21.00;31.90;;;;;;8264478;28;20057;-48
2020/12/21 06:22:24;;;;;;;9.73;6.33;;;20.90;31.90;;;;;;8295873;28;20042;-49
2020/12/21 06:26:36;;;;;;;7.80;5.90;;;20.90;31.80;;;;;;8282484;28;20395;-49
2020/12/21 06:30:36;;;;;;;8.10;5.55;;;21.00;31.90;;;;;;8263821;28;20061;-49
2020/12/21 06:34:39;;;;;;;10.47;5.70;;;21.00;31.90;;;;;;8262243;28;20065;-49
2020/12/21 06:38:47;;;;;;;10.93;6.00;;;21.00;31.90;;;;;;8265672;28;20034;-48
2020/12/21 06:42:48;;;;;;;9.35;6.60;;;20.90;31.90;;;;;;8234059;28;20047;-49
2020/12/21 06:46:48;;;;;;;9.07;6.17;;;20.90;31.90;;;;;;8255158;28;20133;-51
2020/12/21 06:50:49;;;;;;;9.70;6.40;;;20.90;31.90;;;;;;8263380;28;20061;-52
2020/12/21 06:54:50;;;;;;;10.33;5.47;;;20.90;31.90;;;;;;8261672;28;20121;-52
2020/12/21 06:58:50;;;;;;;;;;;20.90;31.90;;;;;;8268162;28;20030;-50
2020/12/21 07:02:52;;;;;;;11.10;6.43;;;20.90;31.90;;;;;;8262947;28;20397;-49
2020/12/21 07:06:52;;;;;;;9.52;5.78;;;20.90;32.00;;;;;;8284914;28;20033;-51
2020/12/21 07:10:57;;;;;;;8.83;5.90;;;20.90;32.00;;;;;;8272850;28;20120;-49
2020/12/21 07:15:01;;;;;;;11.43;6.18;;;20.90;32.00;;;;;;8299315;28;20045;-49
2020/12/21 07:19:01;;;;;;;9.07;5.90;;;20.90;32.00;;;;;;8292799;28;20034;-49
2020/12/21 07:23:02;;;;;;;10.17;5.50;;;20.90;32.00;;;;;;8294371;28;20057;-50
2020/12/21 07:27:03;;;;;;;7.33;5.43;;;20.80;32.00;;;;;;8275016;28;20034;-48
2020/12/21 07:31:04;;;;;;;10.40;6.18;;;20.90;32.00;;;;;;8284695;28;20056;-48
2020/12/21 07:35:05;;;;;;;;;;;20.90;32.00;;;;;;8278392;28;20077;-49
2020/12/21 07:39:14;;;;;;;7.40;5.30;;;20.90;31.90;;;;;;8274125;28;20295;-48
2020/12/21 07:43:22;;;;;;;8.73;5.47;;;20.90;31.90;;;;;;8289067;28;20053;-48
2020/12/21 07:47:28;;;;;;;8.93;6.20;;;20.80;31.90;;;;;;8293454;28;20033;-48
2020/12/21 07:51:30;;;;;;;9.75;5.85;;;20.90;32.00;;;;;;8295897;28;20034;-48
2020/12/21 07:55:31;;;;;;;8.25;5.13;;;20.90;31.90;;;;;;8288481;28;20446;-49
2020/12/21 07:59:31;;;;;;;9.17;5.67;;;20.90;31.90;;;;;;8261168;28;20030;-48
2020/12/21 08:03:32;;;;;;;9.95;6.15;;;20.90;31.90;;;;;;8260336;28;20058;-49
2020/12/21 08:07:34;;;;;;;12.97;7.00;;;20.90;31.90;;;;;;8289921;28;20148;-49
2020/12/21 08:11:36;;;;;;;8.20;5.70;;;20.90;31.90;;;;;;8280518;28;20035;-48
2020/12/21 08:15:36;;;;;;;7.60;5.30;;;20.90;31.90;;;;;;8284763;28;20077;-50
2020/12/21 08:19:58;;;;;;;8.83;5.70;;;20.90;31.90;;;;;;8290760;28;20483;-50
2020/12/21 08:23:59;;;;;;;9.55;5.72;;;20.90;31.90;;;;;;8273943;28;20041;-48
2020/12/21 08:27:59;;;;;;;8.07;5.20;;;20.90;32.00;;;;;;8258697;28;20042;-49
2020/12/21 08:32:00;;;;;;;9.03;5.97;;;20.90;31.90;;;;;;8264531;28;20039;-48
2020/12/21 08:36:21;;;;;;;9.60;5.60;;;20.90;31.90;;;;;;8279329;28;20390;-49
2020/12/21 08:40:22;;;;;;;8.38;5.57;;;20.90;31.90;;;;;;8260520;28;20550;-49
2020/12/21 08:44:25;;;;;;;8.33;5.33;;;20.90;31.90;;;;;;8260111;28;20038;-51
2020/12/21 08:48:26;;;;;;;7.40;5.38;;;20.90;31.90;;;;;;8264348;28;20046;-50
2020/12/21 08:52:26;;;;;;;10.68;6.00;;;20.90;31.90;;;;;;8264165;28;20046;-49
2020/12/21 08:56:27;;;;;;;8.80;5.83;;;20.90;31.90;;;;;;8292309;28;20384;-49
2020/12/21 09:00:27;;;;;;;7.97;5.53;;;20.90;31.90;;;;;;8291991;28;20057;-49
2020/12/21 09:04:28;;;;;;;8.10;5.80;;;20.90;31.90;;;;;;8290379;28;20037;-51
2020/12/21 09:08:28;;;;;;;10.47;5.50;;;20.90;31.90;;;;;;8296460;28;20065;-49
2020/12/21 09:12:29;;;;;;;10.77;7.07;;;20.90;31.90;;;;;;8292283;28;20123;-49
2020/12/21 09:16:31;;;;;;;9.13;5.53;;;20.90;31.90;;;;;;8262288;28;20041;-50
2020/12/21 09:20:31;;;;;;;9.48;5.97;;;20.90;31.90;;;;;;8266003;28;20442;-49
2020/12/21 09:24:32;;;;;;;8.53;5.80;;;20.90;31.90;;;;;;8270069;28;20042;-47
2020/12/21 09:28:33;;;;;;;9.57;6.03;;;20.90;31.90;;;;;;8263757;28;20403;-49
2020/12/21 09:32:33;;;;;;;7.70;4.93;;;20.90;31.90;;;;;;8265585;28;20073;-50
2020/12/21 09:36:34;;;;;;;9.30;6.23;;;20.90;31.90;;;;;;8265612;28;20065;-50
2020/12/21 09:40:34;;;;;;;7.80;5.30;;;20.90;31.90;;;;;;8275638;28;20495;-50
2020/12/21 09:44:35;;;;;;;8.52;5.65;;;20.90;31.90;;;;;;8281994;28;20053;-50
2020/12/21 09:48:36;;;;;;;8.43;5.50;;;20.90;31.90;;;;;;8288589;28;20033;-49
2020/12/21 09:52:36;;;;;;;10.27;5.70;;;20.90;31.90;;;;;;8295833;28;20038;-52
2020/12/21 09:56:37;;;;;;;7.47;5.33;;;20.90;31.90;;;;;;8297513;28;20087;-52
2020/12/21 10:00:37;;;;;;;8.70;6.03;;;20.90;31.90;;;;;;8301810;28;20050;-51
2020/12/21 10:04:38;;;;;;;8.20;5.60;;;20.80;31.90;;;;;;8271320;28;20034;-50
2020/12/21 10:08:39;;;;;;;8.80;5.63;;;20.90;31.90;;;;;;8296184;28;20551;-47
2020/12/21 10:12:40;;;;;;;;;;;20.90;31.90;;;;;;8288517;28;20163;-48
2020/12/21 10:16:40;;;;;;;11.23;5.53;;;20.90;32.00;;;;;;8301008;28;19910;-48
2020/12/21 10:20:43;;;;;;;9.50;5.50;;;20.90;32.00;;;;;;8296713;28;20053;-49
2020/12/21 10:24:43;;;;;;;7.50;5.53;;;20.90;32.00;;;;;;8294377;28;20034;-49
2020/12/21 10:28:44;;;;;;;6.43;5.07;;;20.90;32.00;;;;;;8263700;28;20530;-47
2020/12/21 10:32:44;;;;;;;9.70;5.80;;;20.90;32.00;;;;;;8264850;28;20061;-49
2020/12/21 10:36:49;;;;;;;8.47;5.27;;;20.90;32.00;;;;;;8289654;28;20030;-48
2020/12/21 10:40:50;;;;;;;9.55;5.68;;;20.90;32.00;;;;;;8273650;28;20061;-49
2020/12/21 10:44:50;;;;;;;9.20;5.82;;;20.90;32.00;;;;;;8278416;28;20062;-50
2020/12/21 10:48:51;;;;;;;8.50;5.47;;;20.90;32.00;;;;;;8261440;28;20509;-48
2020/12/21 10:52:51;;;;;;;6.97;5.03;;;20.90;32.00;;;;;;8277364;28;20033;-48
2020/12/21 10:56:52;;;;;;;8.27;5.87;;;20.90;32.00;;;;;;8277850;28;20038;-48
2020/12/21 11:00:52;;;;;;;7.97;5.40;;;20.90;31.90;;;;;;8261676;28;20043;-48
2020/12/21 11:04:53;;;;;;;9.33;5.90;;;20.90;31.90;;;;;;8263179;28;20022;-49
2020/12/21 11:08:54;;;;;;;9.67;5.67;;;20.90;31.90;;;;;;8267001;28;20034;-48
2020/12/21 11:12:54;;;;;;;8.87;6.37;;;20.90;31.90;;;;;;8261175;28;20496;-48
2020/12/21 11:16:57;;;;;;;7.22;5.50;;;20.90;31.90;;;;;;8262611;28;21161;-49
2020/12/21 11:20:58;;;;;;;8.20;5.03;;;20.90;31.90;;;;;;8262950;28;20399;-49
2020/12/21 11:25:00;;;;;;;7.97;5.65;;;20.90;31.90;;;;;;8284924;28;20041;-48
2020/12/21 11:29:01;;;;;;;9.32;5.43;;;20.90;32.00;;;;;;8277457;28;20089;-48
2020/12/21 11:33:02;;;;;;;7.95;5.22;;;20.90;32.00;;;;;;8294730;28;20377;-50
2020/12/21 11:37:02;;;;;;;8.63;5.30;;;20.90;31.90;;;;;;8289538;28;20035;-48
2020/12/21 11:41:03;;;;;;;7.47;5.60;;;20.90;32.00;;;;;;8272297;28;20046;-49
2020/12/21 11:45:06;;;;;;;9.23;5.40;;;20.90;32.00;;;;;;8278950;28;20439;-53
2020/12/21 11:49:06;;;;;;;6.80;5.25;;;20.90;32.00;;;;;;8287930;28;20042;-48
2020/12/21 11:53:07;;;;;;;9.17;5.63;;;20.90;32.00;;;;;;8293826;28;20510;-51
2020/12/21 11:57:07;;;;;;;6.73;4.77;;;20.90;32.00;;;;;;8273636;28;20092;-49
2020/12/21 12:01:08;;;;;;;7.60;4.83;;;20.90;32.00;;;;;;8284917;28;20042;-53
2020/12/21 12:05:12;;;;;;;6.67;4.93;;;20.90;32.00;;;;;;8263077;28;20487;-50
2020/12/21 12:09:13;;;;;;;5.90;4.78;;;20.90;32.00;;;;;;8259922;28;20090;-50
2020/12/21 12:13:13;;;;;;;8.10;5.13;;;20.90;32.00;;;;;;8258188;28;20061;-49
2020/12/21 12:17:17;;;;;;;6.67;5.07;;;20.90;32.00;;;;;;8259872;28;20037;-49
2020/12/21 12:21:24;;;;;;;8.35;4.40;;;21.00;32.00;;;;;;8263473;28;20050;-48
2020/12/21 12:25:24;;;;;;;5.80;4.43;;;20.90;32.00;;;;;;8257688;28;20030;-48
2020/12/21 12:29:25;;;;;;;6.27;4.70;;;20.90;32.00;;;;;;8273589;28;20041;-48
2020/12/21 12:33:25;;;;;;;7.27;4.70;;;20.90;32.00;;;;;;8291619;28;20030;-48
2020/12/21 12:37:26;;;;;;;7.57;5.13;;;21.00;32.00;;;;;;8263468;28;20030;-49
2020/12/21 12:41:26;;;;;;;6.73;5.33;;;21.00;32.00;;;;;;8258983;28;20039;-51
2020/12/21 12:45:27;;;;;;;8.87;5.23;;;20.90;32.00;;;;;;8281763;28;20030;-50
2020/12/21 12:49:27;;;;;;;9.30;5.00;;;21.00;32.00;;;;;;8283113;28;20495;-48
2020/12/21 12:53:29;;;;;;;7.47;5.00;;;20.90;32.00;;;;;;8291819;28;20042;-49
2020/12/21 12:57:29;;;;;;;6.03;4.20;;;20.90;32.10;;;;;;8272317;28;20070;-48
2020/12/21 13:04:14;;;;;;;7.18;4.97;;;21.00;32.10;;;;;;8389101;27;20210;-48
2020/12/21 13:08:15;;;;;;;7.00;4.77;;;21.00;32.10;;;;;;8358160;28;20049;-48
2020/12/21 13:12:15;;;;;;;6.90;4.80;;;20.90;32.10;;;;;;8353751;28;20482;-48
2020/12/21 13:16:16;;;;;;;5.50;4.07;;;21.00;32.10;;;;;;8371462;28;20039;-49
2020/12/21 13:20:16;;;;;;;7.68;5.03;;;20.90;32.00;;;;;;8399213;28;20054;-50
2020/12/21 13:24:17;;;;;;;8.87;5.10;;;20.90;32.10;;;;;;8401330;28;20083;-48
2020/12/21 13:28:17;;;;;;;9.20;5.03;;;20.90;32.20;;;;;;8376439;28;20116;-47
2020/12/21 13:32:18;;;;;;;8.07;4.77;;;20.90;32.20;;;;;;8353058;28;20037;-48
2020/12/21 13:36:19;;;;;;;10.33;5.50;;;20.90;32.40;;;;;;8365412;28;20032;-48
2020/12/21 13:40:19;;;;;;;13.07;5.10;;;20.90;32.40;;;;;;8371322;28;20038;-48
2020/12/21 13:44:20;;;;;;;15.37;5.70;;;21.00;32.70;;;;;;8354662;28;20086;-47
2020/12/21 13:48:20;;;;;;;15.83;5.50;;;20.90;32.70;;;;;;8349586;28;20410;-47
2020/12/21 13:52:21;;;;;;;8.50;4.67;;;20.90;32.70;;;;;;8348334;28;20040;-48
2020/12/21 13:56:21;;;;;;;9.07;5.57;;;20.90;32.70;;;;;;8349774;28;20470;-48
2020/12/21 14:00:22;;;;;;;12.07;5.47;;;21.00;32.70;;;;;;8355663;28;20057;-47
2020/12/21 14:04:22;;;;;;;10.27;5.10;;;21.00;32.60;;;;;;8405134;28;20037;-47
2020/12/21 14:08:23;;;;;;;20.87;5.93;;;20.90;32.50;;;;;;8384539;28;20029;-47
2020/12/21 14:12:23;;;;;;;8.53;5.23;;;21.00;32.50;;;;;;8392096;28;20021;-48
2020/12/21 14:16:25;;;;;;;10.43;5.20;;;21.00;32.40;;;;;;8355281;28;20025;-48
2020/12/21 14:20:26;;;;;;;16.77;5.72;;;21.00;32.40;;;;;;8333504;28;20040;-48
2020/12/21 14:24:26;;;;;;;13.17;4.83;;;21.00;32.40;;;;;;8329636;28;20371;-47
2020/12/21 14:28:27;;;;;;;12.77;5.53;;;21.00;32.30;;;;;;8327365;28;20087;-47
2020/12/21 14:32:28;;;;;;;10.73;6.20;;;21.00;32.30;;;;;;8329381;28;20552;-47
2020/12/21 14:36:31;;;;;;;8.80;5.00;;;21.00;32.30;;;;;;8333302;28;20087;-48
2020/12/21 14:40:31;;;;;;;9.95;5.68;;;21.00;32.30;;;;;;8326726;28;20064;-51
2020/12/21 14:44:32;;;;;;;11.03;4.83;;;21.00;32.30;;;;;;8328532;28;20099;-47
2020/12/21 14:48:32;;;;;;;10.17;5.10;;;21.00;32.30;;;;;;8328339;28;20029;-47
2020/12/21 14:52:33;;;;;;;8.30;5.23;;;21.00;32.30;;;;;;8331115;28;20049;-48
2020/12/21 14:56:36;;;;;;;9.03;5.53;;;21.00;32.30;;;;;;8328752;28;20462;-48
2020/12/21 15:00:36;;;;;;;12.02;5.60;;;21.00;32.30;;;;;;8328273;28;20049;-49
2020/12/21 15:04:37;;;;;;;9.97;4.77;;;21.00;32.30;;;;;;8326608;28;20508;-48
2020/12/21 15:08:38;;;;;;;11.03;5.30;;;21.00;32.30;;;;;;8322928;28;20038;-47
2020/12/21 15:12:38;;;;;;;10.43;5.10;;;21.00;32.30;;;;;;8365258;28;20437;-49
2020/12/21 15:16:39;;;;;;;10.90;4.97;;;21.00;32.30;;;;;;8358881;28;20026;-47
2020/12/21 15:20:43;;;;;;;7.87;5.03;;;21.00;32.30;;;;;;8360373;28;20041;-47
2020/12/21 15:24:44;;;;;;;8.43;4.97;;;21.00;32.30;;;;;;8357134;28;20471;-53
2020/12/21 15:28:45;;;;;;;9.65;5.22;;;21.00;32.30;;;;;;8364625;28;20036;-47
2020/12/21 15:32:45;;;;;;;10.73;5.07;;;21.00;32.30;;;;;;8360206;28;20041;-47
2020/12/21 15:36:46;;;;;;;7.77;5.20;;;21.00;32.30;;;;;;8358087;28;20124;-50
2020/12/21 15:40:48;;;;;;;13.67;5.43;;;21.00;32.30;;;;;;8359548;28;20104;-47
2020/12/21 15:44:48;;;;;;;7.60;5.38;;;21.00;32.30;;;;;;8360808;28;20029;-48
2020/12/21 15:48:49;;;;;;;7.30;4.73;;;21.00;32.30;;;;;;8361442;28;20040;-49
2020/12/21 15:52:49;;;;;;;6.53;4.80;;;21.00;32.30;;;;;;8359701;28;20033;-47
2020/12/21 15:56:50;;;;;;;7.17;5.00;;;21.00;32.30;;;;;;8359436;28;20041;-47
2020/12/21 16:00:50;;;;;;;7.50;4.80;;;21.00;32.30;;;;;;8357303;28;20048;-51
2020/12/21 16:04:51;;;;;;;8.43;4.87;;;21.00;32.30;;;;;;8363948;28;20074;-47
2020/12/21 16:08:51;;;;;;;6.67;4.60;;;21.00;32.30;;;;;;8349666;28;20064;-48
2020/12/21 16:12:52;;;;;;;9.93;5.27;;;21.00;32.30;;;;;;8372499;28;20504;-48
2020/12/21 16:16:52;;;;;;;6.83;5.00;;;21.00;32.30;;;;;;8358464;28;20040;-47
2020/12/21 16:20:53;;;;;;;11.97;5.93;;;21.00;32.30;;;;;;8363021;28;20083;-48
2020/12/21 16:24:54;;;;;;;7.20;5.03;;;21.00;32.30;;;;;;8356345;28;20144;-47
2020/12/21 16:28:54;;;;;;;8.50;4.87;;;21.00;32.30;;;;;;8358671;28;20845;-49
2020/12/21 16:32:55;;;;;;;7.47;5.50;;;21.00;32.30;;;;;;8377280;28;20071;-49
2020/12/21 16:36:55;;;;;;;8.47;5.07;;;21.00;32.30;;;;;;8360985;28;20025;-52
2020/12/21 16:40:56;;;;;;;7.50;4.80;;;21.00;32.30;;;;;;8329715;28;20046;-49
2020/12/21 16:44:56;;;;;;;8.40;5.70;;;21.00;32.30;;;;;;8325136;28;20486;-50
2020/12/21 16:48:58;;;;;;;7.77;4.80;;;21.00;32.30;;;;;;8341156;28;20079;-48
2020/12/21 16:52:58;;;;;;;8.15;5.75;;;21.00;32.30;;;;;;8375368;28;20513;-51
2020/12/21 16:56:59;;;;;;;9.67;6.00;;;21.00;32.30;;;;;;8329458;28;20029;-49
2020/12/21 17:00:59;;;;;;;8.43;5.30;;;21.00;32.30;;;;;;8323470;28;20550;-50
2020/12/21 17:05:00;;;;;;;9.63;5.33;;;21.00;32.30;;;;;;8325123;28;20045;-51
2020/12/21 17:09:00;;;;;;;8.37;5.27;;;21.00;32.30;;;;;;8334035;28;20047;-51
2020/12/21 17:13:01;;;;;;;6.33;4.80;;;21.00;32.30;;;;;;8360363;28;20068;-50
2020/12/21 17:17:04;;;;;;;7.50;5.00;;;21.00;32.30;;;;;;8336650;28;20120;-51
2020/12/21 17:21:04;;;;;;;8.25;5.22;;;21.00;32.40;;;;;;8379805;28;20390;-52
2020/12/21 17:25:05;;;;;;;7.53;5.27;;;21.00;32.40;;;;;;8389300;28;20072;-48
2020/12/21 17:29:05;;;;;;;6.73;5.27;;;21.00;32.40;;;;;;8378862;28;20044;-53
2020/12/21 17:33:06;;;;;;;10.47;6.00;;;21.00;32.40;;;;;;8361858;28;20029;-52
2020/12/21 17:37:06;;;;;;;8.67;5.63;;;21.00;32.40;;;;;;8384079;28;20552;-51
2020/12/21 17:41:07;;;;;;;12.40;5.07;;;21.00;32.90;;;;;;8390444;28;20048;-50
2020/12/21 17:45:07;;;;;;;7.90;5.20;;;21.00;32.40;;;;;;8390603;28;20053;-50
2020/12/21 17:49:08;;;;;;;8.27;5.40;;;21.00;32.40;;;;;;8391019;28;20064;-49
2020/12/21 17:53:09;;;;;;;8.93;6.17;;;21.00;32.40;;;;;;8376062;28;20036;-50
2020/12/21 17:57:09;;;;;;;9.07;5.57;;;21.00;32.40;;;;;;8375428;28;20036;-48
2020/12/21 18:01:09;;;;;;;8.87;5.80;;;21.00;32.40;;;;;;8376442;28;20140;-49
2020/12/21 18:05:10;;;;;;;8.10;5.57;;;21.00;32.40;;;;;;8331801;28;20033;-49
2020/12/21 18:09:11;;;;;;;8.17;5.43;;;21.00;32.40;;;;;;8330194;28;20060;-48
2020/12/21 18:13:12;;;;;;;10.95;5.53;;;21.00;32.40;;;;;;8322421;28;20075;-51
2020/12/21 18:17:12;;;;;;;8.43;6.10;;;21.00;33.00;;;;;;8337859;28;20041;-49
2020/12/21 18:21:13;;;;;;;8.40;6.20;;;21.00;32.40;;;;;;8365410;28;20032;-51
2020/12/21 18:25:13;;;;;;;9.50;5.30;;;21.00;32.40;;;;;;8398606;28;20039;-48
2020/12/21 18:29:14;;;;;;;9.93;6.60;;;21.00;32.50;;;;;;8355998;28;20034;-49
2020/12/21 18:33:14;;;;;;;9.17;5.70;;;21.00;32.70;;;;;;8316499;28;20486;-49
2020/12/21 18:37:16;;;;;;;7.13;5.27;;;21.00;32.40;;;;;;8356799;28;20546;-49
2020/12/21 18:41:16;;;;;;;;;;;21.00;32.40;;;;;;8351902;28;20037;-51
2020/12/21 18:45:17;;;;;;;7.53;4.87;;;21.00;32.50;;;;;;8326770;28;19913;-49
2020/12/21 18:49:17;;;;;;;8.60;5.43;;;21.00;33.00;;;;;;8327182;28;20101;-54
2020/12/21 18:53:18;;;;;;;8.97;5.40;;;21.00;32.50;;;;;;8328929;28;20107;-52
2020/12/21 18:57:18;;;;;;;7.40;4.97;;;21.00;32.50;;;;;;8322961;28;20030;-47
2020/12/21 19:01:19;;;;;;;8.57;5.10;;;21.00;32.50;;;;;;8330627;28;20037;-49
2020/12/21 19:05:20;;;;;;;9.40;5.38;;;21.00;32.50;;;;;;8334313;28;20029;-49
2020/12/21 19:09:21;;;;;;;7.20;5.00;;;21.00;33.00;;;;;;8339138;28;20116;-48
2020/12/21 19:13:24;;;;;;;9.27;5.75;;;21.00;32.50;;;;;;8326108;28;20487;-49
2020/12/21 19:17:24;;;;;;;6.80;4.70;;;21.00;32.50;;;;;;8332019;28;20034;-49
2020/12/21 19:21:25;;;;;;;8.53;5.10;;;21.00;32.50;;;;;;8327503;28;20509;-49
2020/12/21 19:25:26;;;;;;;9.77;5.47;;;21.00;32.50;;;;;;8344557;28;20026;-48
2020/12/21 19:29:28;;;;;;;6.80;5.47;;;21.00;32.50;;;;;;8345791;28;20557;-48
2020/12/21 19:33:28;;;;;;;8.32;5.50;;;21.10;32.50;;;;;;8298953;28;20513;-48
2020/12/21 19:37:29;;;;;;;7.03;5.10;;;21.00;32.50;;;;;;8328550;28;20057;-47
2020/12/21 19:41:29;;;;;;;9.23;5.73;;;21.00;32.50;;;;;;8342247;28;20453;-50
2020/12/21 19:45:30;;;;;;;7.10;4.97;;;21.00;32.50;;;;;;8336605;28;20041;-49
2020/12/21 19:49:31;;;;;;;7.23;5.40;;;21.00;32.50;;;;;;8327965;28;20052;-48
2020/12/21 19:53:31;;;;;;;7.20;4.87;;;21.00;32.50;;;;;;8323835;28;20029;-48
2020/12/21 19:57:32;;;;;;;6.83;4.97;;;21.00;32.50;;;;;;8378730;28;20380;-47
2020/12/21 20:01:37;;;;;;;8.57;5.27;;;21.00;32.50;;;;;;8383292;28;20056;-49
2020/12/21 20:05:37;;;;;;;8.85;5.45;;;21.10;32.60;;;;;;8375211;28;20489;-50
2020/12/21 20:09:38;;;;;;;7.23;5.23;;;21.10;32.60;;;;;;8384127;28;20033;-50
2020/12/21 20:13:38;;;;;;;7.00;5.13;;;21.00;32.50;;;;;;8326067;28;20439;-50
2020/12/21 20:17:39;;;;;;;7.17;5.03;;;21.10;32.60;;;;;;8362743;28;20048;-49
2020/12/21 20:21:40;;;;;;;7.43;5.20;;;21.00;33.10;;;;;;8390073;28;20051;-48
2020/12/21 20:25:41;;;;;;;6.13;4.72;;;21.10;32.60;;;;;;8392286;28;20036;-49
2020/12/21 20:29:41;;;;;;;8.63;5.40;;;21.00;32.60;;;;;;8395321;28;20044;-49
2020/12/21 20:33:42;;;;;;;7.60;5.33;;;21.00;32.50;;;;;;8389644;28;20090;-52
2020/12/21 20:37:42;;;;;;;6.13;4.97;;;21.00;32.60;;;;;;8391871;28;20125;-50
2020/12/21 20:41:43;;;;;;;9.23;5.10;;;21.10;32.60;;;;;;8386860;28;20037;-50
2020/12/21 20:45:45;;;;;;;7.43;5.00;;;21.10;32.60;;;;;;8361055;28;20494;-50
2020/12/21 20:49:45;;;;;;;7.57;5.10;;;21.10;32.60;;;;;;8358018;28;20161;-49
2020/12/21 20:53:46;;;;;;;7.20;4.53;;;21.10;32.70;;;;;;8358196;28;20041;-49
2020/12/21 20:57:48;;;;;;;6.77;4.80;;;21.00;32.70;;;;;;8363229;28;20098;-50